Terminal Aerodrome Forecast
Issued by NWS

Home | Current Version | Previous Version | Graphics & Text | Print | Product List | Glossary On
Versions: 1 2 3 4 5 6 7 8 9 10 11 12 13 14 15
556
FTUS43 KMPX 282346
TAFRWF
TAF
KRWF 282346Z 2900/2924 33006KT P6SM VCSH OVC035
     FM290500 29006KT P6SM OVC035
     FM290900 27005KT P6SM OVC025
     FM291000 28005KT P6SM BKN035
     FM291600 29008KT P6SM SCT080=

USA.gov is the U.S. government's official web portal to all federal, state and local government web resources and services.